sensor_id;sensor_type;location;lat;lon;timestamp;P1;durP1;ratioP1;P2;durP2;ratioP2
3943;SDS011;1986;52.546;13.428;2023-05-10T00:00:20;28.50;;;26.70;;
3943;SDS011;1986;52.546;13.428;2023-05-10T00:02:48;30.33;;;27.97;;
3943;SDS011;1986;52.546;13.428;2023-05-10T00:05:17;30.00;;;28.10;;
3943;SDS011;1986;52.546;13.428;2023-05-10T00:07:44;26.77;;;25.07;;
3943;SDS011;1986;52.546;13.428;2023-05-10T00:10:11;27.87;;;25.80;;
3943;SDS011;1986;52.546;13.428;2023-05-10T00:12:38;28.03;;;26.20;;
3943;SDS011;1986;52.546;13.428;2023-05-10T00:15:08;27.13;;;25.43;;
3943;SDS011;1986;52.546;13.428;2023-05-10T00:17:37;26.80;;;25.17;;
3943;SDS011;1986;52.546;13.428;2023-05-10T00:20:05;26.30;;;24.60;;
3943;SDS011;1986;52.546;13.428;2023-05-10T00:22:32;29.37;;;27.07;;
3943;SDS011;1986;52.546;13.428;2023-05-10T00:24:59;25.47;;;23.97;;
3943;SDS011;1986;52.546;13.428;2023-05-10T00:27:26;27.00;;;25.33;;
3943;SDS011;1986;52.546;13.428;2023-05-10T00:29:53;28.40;;;26.27;;
3943;SDS011;1986;52.546;13.428;2023-05-10T00:32:20;26.20;;;24.60;;
3943;SDS011;1986;52.546;13.428;2023-05-10T00:34:51;30.37;;;27.80;;
3943;SDS011;1986;52.546;13.428;2023-05-10T00:37:18;27.23;;;25.43;;
3943;SDS011;1986;52.546;13.428;2023-05-10T00:39:45;25.40;;;23.90;;
3943;SDS011;1986;52.546;13.428;2023-05-10T00:42:15;25.10;;;23.60;;
3943;SDS011;1986;52.546;13.428;2023-05-10T00:44:42;26.53;;;24.93;;
3943;SDS011;1986;52.546;13.428;2023-05-10T00:47:09;25.73;;;23.93;;
3943;SDS011;1986;52.546;13.428;2023-05-10T00:49:36;24.80;;;23.30;;
3943;SDS011;1986;52.546;13.428;2023-05-10T00:52:05;28.17;;;26.17;;
3943;SDS011;1986;52.546;13.428;2023-05-10T00:54:32;26.27;;;24.33;;
3943;SDS011;1986;52.546;13.428;2023-05-10T00:56:59;28.90;;;26.20;;
3943;SDS011;1986;52.546;13.428;2023-05-10T00:59:26;25.57;;;23.97;;
3943;SDS011;1986;52.546;13.428;2023-05-10T01:01:56;25.63;;;24.03;;
3943;SDS011;1986;52.546;13.428;2023-05-10T01:04:24;25.20;;;23.60;;
3943;SDS011;1986;52.546;13.428;2023-05-10T01:06:51;25.10;;;23.60;;
3943;SDS011;1986;52.546;13.428;2023-05-10T01:09:21;26.67;;;24.97;;
3943;SDS011;1986;52.546;13.428;2023-05-10T01:11:48;24.27;;;22.87;;
3943;SDS011;1986;52.546;13.428;2023-05-10T01:14:16;25.23;;;23.67;;
3943;SDS011;1986;52.546;13.428;2023-05-10T01:16:45;24.63;;;23.13;;
3943;SDS011;1986;52.546;13.428;2023-05-10T01:19:17;23.90;;;22.50;;
3943;SDS011;1986;52.546;13.428;2023-05-10T01:21:49;23.80;;;22.40;;
3943;SDS011;1986;52.546;13.428;2023-05-10T01:33:23;23.47;;;22.03;;
3943;SDS011;1986;52.546;13.428;2023-05-10T01:35:55;23.17;;;21.77;;
3943;SDS011;1986;52.546;13.428;2023-05-10T01:38:29;30.73;;;27.93;;
3943;SDS011;1986;52.546;13.428;2023-05-10T01:41:09;23.93;;;22.43;;
3943;SDS011;1986;52.546;13.428;2023-05-10T01:43:44;23.40;;;21.90;;
3943;SDS011;1986;52.546;13.428;2023-05-10T01:46:20;23.10;;;21.30;;
3943;SDS011;1986;52.546;13.428;2023-05-10T01:48:55;23.50;;;22.07;;
3943;SDS011;1986;52.546;13.428;2023-05-10T01:51:24;22.70;;;21.30;;
3943;SDS011;1986;52.546;13.428;2023-05-10T01:53:59;22.90;;;21.50;;
3943;SDS011;1986;52.546;13.428;2023-05-10T01:56:29;21.67;;;20.47;;
3943;SDS011;1986;52.546;13.428;2023-05-10T01:58:58;23.63;;;21.93;;
3943;SDS011;1986;52.546;13.428;2023-05-10T02:01:31;24.00;;;22.30;;
3943;SDS011;1986;52.546;13.428;2023-05-10T02:04:01;23.60;;;22.10;;
3943;SDS011;1986;52.546;13.428;2023-05-10T02:06:29;23.13;;;21.00;;
3943;SDS011;1986;52.546;13.428;2023-05-10T02:08:57;22.73;;;21.33;;
3943;SDS011;1986;52.546;13.428;2023-05-10T02:11:26;24.10;;;21.97;;
3943;SDS011;1986;52.546;13.428;2023-05-10T02:13:54;21.00;;;19.80;;
3943;SDS011;1986;52.546;13.428;2023-05-10T02:16:23;21.10;;;19.90;;
3943;SDS011;1986;52.546;13.428;2023-05-10T02:18:52;24.07;;;22.50;;
3943;SDS011;1986;52.546;13.428;2023-05-10T02:21:21;21.37;;;20.17;;
3943;SDS011;1986;52.546;13.428;2023-05-10T02:23:52;21.20;;;20.00;;
3943;SDS011;1986;52.546;13.428;2023-05-10T02:26:21;22.20;;;20.70;;
3943;SDS011;1986;52.546;13.428;2023-05-10T02:28:50;21.87;;;20.47;;
3943;SDS011;1986;52.546;13.428;2023-05-10T02:31:17;21.70;;;20.30;;
3943;SDS011;1986;52.546;13.428;2023-05-10T02:33:45;22.07;;;20.77;;
3943;SDS011;1986;52.546;13.428;2023-05-10T02:36:13;23.03;;;21.43;;
3943;SDS011;1986;52.546;13.428;2023-05-10T02:38:44;21.97;;;20.30;;
3943;SDS011;1986;52.546;13.428;2023-05-10T02:41:13;25.93;;;23.47;;
3943;SDS011;1986;52.546;13.428;2023-05-10T02:43:41;23.10;;;21.40;;
3943;SDS011;1986;52.546;13.428;2023-05-10T02:46:09;22.60;;;21.00;;
3943;SDS011;1986;52.546;13.428;2023-05-10T02:48:36;23.37;;;21.80;;
3943;SDS011;1986;52.546;13.428;2023-05-10T02:51:04;21.00;;;19.80;;
3943;SDS011;1986;52.546;13.428;2023-05-10T02:53:35;22.87;;;20.83;;
3943;SDS011;1986;52.546;13.428;2023-05-10T02:56:08;21.33;;;20.03;;
3943;SDS011;1986;52.546;13.428;2023-05-10T02:58:42;21.90;;;20.50;;
3943;SDS011;1986;52.546;13.428;2023-05-10T03:01:09;20.23;;;19.13;;
3943;SDS011;1986;52.546;13.428;2023-05-10T03:03:36;21.50;;;20.00;;
3943;SDS011;1986;52.546;13.428;2023-05-10T03:06:03;22.23;;;20.83;;
3943;SDS011;1986;52.546;13.428;2023-05-10T03:08:30;21.07;;;19.87;;
3943;SDS011;1986;52.546;13.428;2023-05-10T03:11:01;20.20;;;19.00;;
3943;SDS011;1986;52.546;13.428;2023-05-10T03:13:44;19.60;;;18.60;;
3943;SDS011;1986;52.546;13.428;2023-05-10T03:16:21;20.10;;;19.00;;
3943;SDS011;1986;52.546;13.428;2023-05-10T03:18:54;20.10;;;19.00;;
3943;SDS011;1986;52.546;13.428;2023-05-10T03:21:25;20.87;;;19.67;;
3943;SDS011;1986;52.546;13.428;2023-05-10T03:23:56;20.50;;;19.40;;
3943;SDS011;1986;52.546;13.428;2023-05-10T03:26:27;20.73;;;19.53;;
3943;SDS011;1986;52.546;13.428;2023-05-10T03:28:58;21.20;;;19.90;;
3943;SDS011;1986;52.546;13.428;2023-05-10T03:31:25;21.40;;;20.00;;
3943;SDS011;1986;52.546;13.428;2023-05-10T03:33:53;20.87;;;19.47;;
3943;SDS011;1986;52.546;13.428;2023-05-10T03:36:19;19.90;;;18.80;;
3943;SDS011;1986;52.546;13.428;2023-05-10T03:38:46;19.80;;;18.70;;
3943;SDS011;1986;52.546;13.428;2023-05-10T03:41:13;19.90;;;18.80;;
3943;SDS011;1986;52.546;13.428;2023-05-10T03:43:42;20.07;;;18.77;;
3943;SDS011;1986;52.546;13.428;2023-05-10T03:46:12;21.33;;;20.03;;
3943;SDS011;1986;52.546;13.428;2023-05-10T03:48:39;21.33;;;19.90;;
3943;SDS011;1986;52.546;13.428;2023-05-10T03:51:06;20.00;;;18.90;;
3943;SDS011;1986;52.546;13.428;2023-05-10T03:53:32;23.33;;;20.80;;
3943;SDS011;1986;52.546;13.428;2023-05-10T03:55:59;21.43;;;20.23;;
3943;SDS011;1986;52.546;13.428;2023-05-10T03:58:27;21.53;;;19.93;;
3943;SDS011;1986;52.546;13.428;2023-05-10T04:00:58;22.43;;;20.20;;
3943;SDS011;1986;52.546;13.428;2023-05-10T04:03:25;21.90;;;20.17;;
3943;SDS011;1986;52.546;13.428;2023-05-10T04:05:58;20.10;;;18.93;;
3943;SDS011;1986;52.546;13.428;2023-05-10T04:08:26;19.80;;;18.70;;
3943;SDS011;1986;52.546;13.428;2023-05-10T04:10:56;19.50;;;18.40;;
3943;SDS011;1986;52.546;13.428;2023-05-10T04:13:31;19.40;;;18.30;;
3943;SDS011;1986;52.546;13.428;2023-05-10T04:15:59;20.50;;;19.20;;
3943;SDS011;1986;52.546;13.428;2023-05-10T04:18:26;21.40;;;19.93;;
3943;SDS011;1986;52.546;13.428;2023-05-10T04:20:59;19.80;;;18.60;;
3943;SDS011;1986;52.546;13.428;2023-05-10T04:23:27;19.63;;;18.53;;
3943;SDS011;1986;52.546;13.428;2023-05-10T04:26:03;20.70;;;19.50;;
3943;SDS011;1986;52.546;13.428;2023-05-10T04:28:30;21.40;;;20.00;;
3943;SDS011;1986;52.546;13.428;2023-05-10T04:31:02;21.13;;;19.83;;
3943;SDS011;1986;52.546;13.428;2023-05-10T04:33:29;21.80;;;20.13;;
3943;SDS011;1986;52.546;13.428;2023-05-10T04:36:00;21.03;;;19.73;;
3943;SDS011;1986;52.546;13.428;2023-05-10T04:38:28;20.63;;;19.30;;
3943;SDS011;1986;52.546;13.428;2023-05-10T04:41:03;22.80;;;20.73;;
3943;SDS011;1986;52.546;13.428;2023-05-10T04:43:32;23.63;;;21.83;;
3943;SDS011;1986;52.546;13.428;2023-05-10T04:45:59;20.80;;;19.50;;
3943;SDS011;1986;52.546;13.428;2023-05-10T04:48:27;22.30;;;20.80;;
3943;SDS011;1986;52.546;13.428;2023-05-10T04:50:55;22.10;;;20.80;;
3943;SDS011;1986;52.546;13.428;2023-05-10T04:53:22;22.10;;;20.70;;
3943;SDS011;1986;52.546;13.428;2023-05-10T04:55:49;23.70;;;21.87;;
3943;SDS011;1986;52.546;13.428;2023-05-10T04:58:16;22.70;;;21.23;;
3943;SDS011;1986;52.546;13.428;2023-05-10T05:00:45;23.07;;;21.27;;
3943;SDS011;1986;52.546;13.428;2023-05-10T05:03:12;21.97;;;20.57;;
3943;SDS011;1986;52.546;13.428;2023-05-10T05:05:41;22.37;;;20.97;;
3943;SDS011;1986;52.546;13.428;2023-05-10T05:08:08;25.47;;;23.07;;
3943;SDS011;1986;52.546;13.428;2023-05-10T05:10:35;25.23;;;23.13;;
3943;SDS011;1986;52.546;13.428;2023-05-10T05:13:02;24.63;;;22.90;;
3943;SDS011;1986;52.546;13.428;2023-05-10T05:15:29;25.70;;;23.30;;
3943;SDS011;1986;52.546;13.428;2023-05-10T05:17:57;23.27;;;21.77;;
3943;SDS011;1986;52.546;13.428;2023-05-10T05:20:27;24.53;;;22.83;;
3943;SDS011;1986;52.546;13.428;2023-05-10T05:22:59;25.20;;;23.40;;
3943;SDS011;1986;52.546;13.428;2023-05-10T05:25:26;24.83;;;23.03;;
3943;SDS011;1986;52.546;13.428;2023-05-10T05:27:53;25.97;;;23.87;;
3943;SDS011;1986;52.546;13.428;2023-05-10T05:30:20;25.30;;;23.33;;
3943;SDS011;1986;52.546;13.428;2023-05-10T05:32:49;26.03;;;24.13;;
3943;SDS011;1986;52.546;13.428;2023-05-10T05:35:19;26.30;;;24.43;;
3943;SDS011;1986;52.546;13.428;2023-05-10T05:37:49;23.93;;;22.23;;
3943;SDS011;1986;52.546;13.428;2023-05-10T05:40:17;27.27;;;25.23;;
3943;SDS011;1986;52.546;13.428;2023-05-10T05:42:45;24.93;;;23.13;;
3943;SDS011;1986;52.546;13.428;2023-05-10T05:45:12;25.17;;;23.43;;
3943;SDS011;1986;52.546;13.428;2023-05-10T05:47:39;26.13;;;24.00;;
3943;SDS011;1986;52.546;13.428;2023-05-10T05:50:07;26.10;;;24.20;;
3943;SDS011;1986;52.546;13.428;2023-05-10T05:52:35;24.43;;;22.83;;
3943;SDS011;1986;52.546;13.428;2023-05-10T05:55:03;26.03;;;24.13;;
3943;SDS011;1986;52.546;13.428;2023-05-10T05:57:33;25.77;;;23.97;;
3943;SDS011;1986;52.546;13.428;2023-05-10T06:00:02;25.00;;;23.30;;
3943;SDS011;1986;52.546;13.428;2023-05-10T06:02:30;26.13;;;24.00;;
3943;SDS011;1986;52.546;13.428;2023-05-10T06:04:57;26.20;;;23.90;;
3943;SDS011;1986;52.546;13.428;2023-05-10T06:07:25;25.63;;;23.83;;
3943;SDS011;1986;52.546;13.428;2023-05-10T06:09:54;26.13;;;24.07;;
3943;SDS011;1986;52.546;13.428;2023-05-10T06:12:23;26.07;;;24.03;;
3943;SDS011;1986;52.546;13.428;2023-05-10T06:15:03;25.70;;;23.90;;
3943;SDS011;1986;52.546;13.428;2023-05-10T06:17:30;25.73;;;23.83;;
3943;SDS011;1986;52.546;13.428;2023-05-10T06:19:58;27.60;;;25.40;;
3943;SDS011;1986;52.546;13.428;2023-05-10T06:22:27;26.33;;;24.13;;
3943;SDS011;1986;52.546;13.428;2023-05-10T06:24:54;27.70;;;25.20;;
3943;SDS011;1986;52.546;13.428;2023-05-10T06:27:22;27.93;;;25.73;;
3943;SDS011;1986;52.546;13.428;2023-05-10T06:29:49;26.30;;;24.40;;
3943;SDS011;1986;52.546;13.428;2023-05-10T06:32:18;28.00;;;25.40;;
3943;SDS011;1986;52.546;13.428;2023-05-10T06:34:45;27.07;;;25.07;;
3943;SDS011;1986;52.546;13.428;2023-05-10T06:37:15;27.30;;;25.07;;
3943;SDS011;1986;52.546;13.428;2023-05-10T06:39:42;28.20;;;26.00;;
3943;SDS011;1986;52.546;13.428;2023-05-10T06:42:08;29.90;;;26.93;;
3943;SDS011;1986;52.546;13.428;2023-05-10T06:44:35;28.57;;;26.37;;
3943;SDS011;1986;52.546;13.428;2023-05-10T06:47:02;27.87;;;25.53;;
3943;SDS011;1986;52.546;13.428;2023-05-10T06:49:31;28.03;;;25.87;;
3943;SDS011;1986;52.546;13.428;2023-05-10T06:51:58;26.60;;;24.50;;
3943;SDS011;1986;52.546;13.428;2023-05-10T06:54:25;26.60;;;24.50;;
3943;SDS011;1986;52.546;13.428;2023-05-10T06:56:52;27.63;;;25.27;;
3943;SDS011;1986;52.546;13.428;2023-05-10T06:59:19;27.70;;;25.40;;
3943;SDS011;1986;52.546;13.428;2023-05-10T07:01:49;26.57;;;24.60;;
3943;SDS011;1986;52.546;13.428;2023-05-10T07:04:17;25.70;;;23.90;;
3943;SDS011;1986;52.546;13.428;2023-05-10T07:06:45;27.50;;;25.40;;
3943;SDS011;1986;52.546;13.428;2023-05-10T07:09:15;26.13;;;23.83;;
3943;SDS011;1986;52.546;13.428;2023-05-10T07:11:43;28.77;;;26.23;;
3943;SDS011;1986;52.546;13.428;2023-05-10T07:14:10;26.93;;;24.93;;
3943;SDS011;1986;52.546;13.428;2023-05-10T07:16:41;26.67;;;24.27;;
3943;SDS011;1986;52.546;13.428;2023-05-10T07:19:11;27.93;;;25.33;;
3943;SDS011;1986;52.546;13.428;2023-05-10T07:21:37;26.63;;;24.73;;
3943;SDS011;1986;52.546;13.428;2023-05-10T07:24:07;26.57;;;24.47;;
3943;SDS011;1986;52.546;13.428;2023-05-10T07:26:34;28.23;;;25.90;;
3943;SDS011;1986;52.546;13.428;2023-05-10T07:29:03;27.90;;;25.80;;
3943;SDS011;1986;52.546;13.428;2023-05-10T07:31:30;26.83;;;24.90;;
3943;SDS011;1986;52.546;13.428;2023-05-10T07:34:02;26.40;;;24.50;;
3943;SDS011;1986;52.546;13.428;2023-05-10T07:36:29;26.47;;;24.63;;
3943;SDS011;1986;52.546;13.428;2023-05-10T07:38:57;27.27;;;25.37;;
3943;SDS011;1986;52.546;13.428;2023-05-10T07:41:28;27.00;;;25.20;;
3943;SDS011;1986;52.546;13.428;2023-05-10T07:43:58;28.23;;;26.20;;
3943;SDS011;1986;52.546;13.428;2023-05-10T07:46:25;27.67;;;25.77;;
3943;SDS011;1986;52.546;13.428;2023-05-10T07:48:52;27.80;;;25.90;;
3943;SDS011;1986;52.546;13.428;2023-05-10T07:51:25;28.57;;;26.37;;
3943;SDS011;1986;52.546;13.428;2023-05-10T07:54:14;28.70;;;26.30;;
3943;SDS011;1986;52.546;13.428;2023-05-10T08:00:20;28.60;;;26.47;;
3943;SDS011;1986;52.546;13.428;2023-05-10T08:03:21;27.23;;;25.23;;
3943;SDS011;1986;52.546;13.428;2023-05-10T08:06:05;27.33;;;25.33;;
3943;SDS011;1986;52.546;13.428;2023-05-10T08:09:22;28.70;;;26.50;;
3943;SDS011;1986;52.546;13.428;2023-05-10T08:11:56;28.10;;;25.83;;
3943;SDS011;1986;52.546;13.428;2023-05-10T08:14:25;28.23;;;26.13;;
3943;SDS011;1986;52.546;13.428;2023-05-10T08:16:54;27.20;;;25.30;;
3943;SDS011;1986;52.546;13.428;2023-05-10T08:19:21;29.33;;;26.90;;
3943;SDS011;1986;52.546;13.428;2023-05-10T08:21:49;30.07;;;27.77;;
3943;SDS011;1986;52.546;13.428;2023-05-10T08:24:16;30.73;;;27.90;;
3943;SDS011;1986;52.546;13.428;2023-05-10T08:26:42;28.37;;;26.47;;
3943;SDS011;1986;52.546;13.428;2023-05-10T08:29:09;29.67;;;27.37;;
3943;SDS011;1986;52.546;13.428;2023-05-10T08:31:36;28.20;;;26.20;;
3943;SDS011;1986;52.546;13.428;2023-05-10T08:34:05;29.43;;;27.43;;
3943;SDS011;1986;52.546;13.428;2023-05-10T08:36:32;30.53;;;28.20;;
3943;SDS011;1986;52.546;13.428;2023-05-10T08:38:59;29.90;;;27.70;;
3943;SDS011;1986;52.546;13.428;2023-05-10T08:41:29;30.00;;;28.00;;
3943;SDS011;1986;52.546;13.428;2023-05-10T08:43:58;32.57;;;30.27;;
3943;SDS011;1986;52.546;13.428;2023-05-10T08:46:28;32.40;;;30.10;;
3943;SDS011;1986;52.546;13.428;2023-05-10T08:48:57;31.03;;;28.83;;
3943;SDS011;1986;52.546;13.428;2023-05-10T08:51:30;31.97;;;29.53;;
3943;SDS011;1986;52.546;13.428;2023-05-10T08:54:01;31.73;;;29.63;;
3943;SDS011;1986;52.546;13.428;2023-05-10T08:56:28;31.40;;;29.40;;
3943;SDS011;1986;52.546;13.428;2023-05-10T08:58:55;32.93;;;30.63;;
3943;SDS011;1986;52.546;13.428;2023-05-10T09:01:23;32.37;;;30.07;;
3943;SDS011;1986;52.546;13.428;2023-05-10T09:03:53;31.77;;;29.67;;
3943;SDS011;1986;52.546;13.428;2023-05-10T09:06:20;31.07;;;28.93;;
3943;SDS011;1986;52.546;13.428;2023-05-10T09:08:50;31.90;;;29.77;;
3943;SDS011;1986;52.546;13.428;2023-05-10T09:11:18;30.57;;;28.47;;
3943;SDS011;1986;52.546;13.428;2023-05-10T09:13:47;32.93;;;30.80;;
3943;SDS011;1986;52.546;13.428;2023-05-10T09:16:15;30.30;;;28.20;;
3943;SDS011;1986;52.546;13.428;2023-05-10T09:18:42;32.27;;;30.07;;
3943;SDS011;1986;52.546;13.428;2023-05-10T09:21:11;29.60;;;27.70;;
3943;SDS011;1986;52.546;13.428;2023-05-10T09:23:42;30.10;;;28.10;;
3943;SDS011;1986;52.546;13.428;2023-05-10T09:26:10;32.83;;;30.47;;
3943;SDS011;1986;52.546;13.428;2023-05-10T09:28:50;30.43;;;28.30;;
3943;SDS011;1986;52.546;13.428;2023-05-10T09:31:18;30.30;;;28.00;;
3943;SDS011;1986;52.546;13.428;2023-05-10T09:33:46;29.60;;;27.60;;
3943;SDS011;1986;52.546;13.428;2023-05-10T09:36:14;30.80;;;28.50;;
3943;SDS011;1986;52.546;13.428;2023-05-10T09:38:45;36.23;;;27.87;;
3943;SDS011;1986;52.546;13.428;2023-05-10T09:41:20;30.00;;;27.80;;
3943;SDS011;1986;52.546;13.428;2023-05-10T09:43:47;29.80;;;27.70;;
3943;SDS011;1986;52.546;13.428;2023-05-10T09:46:15;31.57;;;28.33;;
3943;SDS011;1986;52.546;13.428;2023-05-10T09:48:44;29.20;;;27.10;;
3943;SDS011;1986;52.546;13.428;2023-05-10T09:51:18;29.27;;;27.17;;
3943;SDS011;1986;52.546;13.428;2023-05-10T09:53:48;29.90;;;27.90;;
3943;SDS011;1986;52.546;13.428;2023-05-10T09:56:36;32.47;;;29.93;;
3943;SDS011;1986;52.546;13.428;2023-05-10T09:59:05;30.30;;;28.10;;
3943;SDS011;1986;52.546;13.428;2023-05-10T10:01:33;30.83;;;28.63;;
3943;SDS011;1986;52.546;13.428;2023-05-10T10:04:01;30.60;;;28.47;;
3943;SDS011;1986;52.546;13.428;2023-05-10T10:06:34;29.10;;;27.10;;
3943;SDS011;1986;52.546;13.428;2023-05-10T10:09:04;49.67;;;29.47;;
3943;SDS011;1986;52.546;13.428;2023-05-10T10:11:32;30.77;;;28.57;;
3943;SDS011;1986;52.546;13.428;2023-05-10T10:14:01;30.70;;;28.40;;
3943;SDS011;1986;52.546;13.428;2023-05-10T10:16:28;30.97;;;28.67;;
3943;SDS011;1986;52.546;13.428;2023-05-10T10:18:56;31.50;;;29.00;;
3943;SDS011;1986;52.546;13.428;2023-05-10T10:21:24;29.70;;;27.60;;
3943;SDS011;1986;52.546;13.428;2023-05-10T10:23:51;29.10;;;27.10;;
3943;SDS011;1986;52.546;13.428;2023-05-10T10:26:19;30.77;;;28.47;;
3943;SDS011;1986;52.546;13.428;2023-05-10T10:28:49;29.40;;;27.40;;
3943;SDS011;1986;52.546;13.428;2023-05-10T10:31:26;31.00;;;28.60;;
3943;SDS011;1986;52.546;13.428;2023-05-10T10:34:01;30.37;;;28.27;;
3943;SDS011;1986;52.546;13.428;2023-05-10T10:36:34;31.83;;;29.30;;
3943;SDS011;1986;52.546;13.428;2023-05-10T10:39:08;30.70;;;28.60;;
3943;SDS011;1986;52.546;13.428;2023-05-10T10:41:37;32.23;;;30.00;;
3943;SDS011;1986;52.546;13.428;2023-05-10T10:44:25;32.40;;;29.93;;
3943;SDS011;1986;52.546;13.428;2023-05-10T10:47:05;30.90;;;28.80;;
3943;SDS011;1986;52.546;13.428;2023-05-10T10:49:42;30.80;;;28.60;;
3943;SDS011;1986;52.546;13.428;2023-05-10T10:52:15;32.10;;;29.90;;
3943;SDS011;1986;52.546;13.428;2023-05-10T10:54:49;32.37;;;29.60;;
3943;SDS011;1986;52.546;13.428;2023-05-10T10:57:17;32.00;;;29.67;;
3943;SDS011;1986;52.546;13.428;2023-05-10T10:59:48;31.87;;;29.50;;
3943;SDS011;1986;52.546;13.428;2023-05-10T11:02:37;31.40;;;29.00;;
3943;SDS011;1986;52.546;13.428;2023-05-10T11:05:26;29.10;;;27.00;;
3943;SDS011;1986;52.546;13.428;2023-05-10T11:08:07;31.80;;;29.50;;
3943;SDS011;1986;52.546;13.428;2023-05-10T11:10:38;32.20;;;29.80;;
3943;SDS011;1986;52.546;13.428;2023-05-10T11:13:07;30.73;;;28.43;;
3943;SDS011;1986;52.546;13.428;2023-05-10T11:15:35;32.03;;;29.53;;
3943;SDS011;1986;52.546;13.428;2023-05-10T11:18:20;30.77;;;28.50;;
3943;SDS011;1986;52.546;13.428;2023-05-10T11:20:50;30.90;;;28.60;;
3943;SDS011;1986;52.546;13.428;2023-05-10T11:23:17;30.13;;;27.93;;
3943;SDS011;1986;52.546;13.428;2023-05-10T11:25:46;29.80;;;27.60;;
3943;SDS011;1986;52.546;13.428;2023-05-10T11:28:20;32.47;;;30.07;;
3943;SDS011;1986;52.546;13.428;2023-05-10T11:30:47;34.37;;;30.87;;
3943;SDS011;1986;52.546;13.428;2023-05-10T11:33:15;32.07;;;29.47;;
3943;SDS011;1986;52.546;13.428;2023-05-10T11:35:44;31.30;;;29.10;;
3943;SDS011;1986;52.546;13.428;2023-05-10T11:38:12;32.57;;;30.27;;
3943;SDS011;1986;52.546;13.428;2023-05-10T11:40:40;33.00;;;30.60;;
3943;SDS011;1986;52.546;13.428;2023-05-10T11:43:08;32.93;;;30.53;;
3943;SDS011;1986;52.546;13.428;2023-05-10T11:45:36;34.93;;;32.00;;
3943;SDS011;1986;52.546;13.428;2023-05-10T11:48:03;33.30;;;30.80;;
3943;SDS011;1986;52.546;13.428;2023-05-10T11:50:30;31.20;;;29.00;;
3943;SDS011;1986;52.546;13.428;2023-05-10T11:53:02;30.80;;;28.40;;
3943;SDS011;1986;52.546;13.428;2023-05-10T11:55:28;31.83;;;29.43;;
3943;SDS011;1986;52.546;13.428;2023-05-10T11:58:00;33.57;;;31.00;;
3943;SDS011;1986;52.546;13.428;2023-05-10T12:00:28;32.23;;;29.83;;
3943;SDS011;1986;52.546;13.428;2023-05-10T12:02:56;31.07;;;28.87;;
3943;SDS011;1986;52.546;13.428;2023-05-10T12:05:23;32.30;;;29.80;;
3943;SDS011;1986;52.546;13.428;2023-05-10T12:07:51;32.70;;;30.40;;
3943;SDS011;1986;52.546;13.428;2023-05-10T12:10:24;31.73;;;29.33;;
3943;SDS011;1986;52.546;13.428;2023-05-10T12:12:52;33.13;;;30.73;;
3943;SDS011;1986;52.546;13.428;2023-05-10T12:15:20;32.77;;;30.37;;
3943;SDS011;1986;52.546;13.428;2023-05-10T12:17:48;34.80;;;31.80;;
3943;SDS011;1986;52.546;13.428;2023-05-10T12:20:16;34.00;;;31.60;;
3943;SDS011;1986;52.546;13.428;2023-05-10T12:22:46;32.90;;;30.60;;
3943;SDS011;1986;52.546;13.428;2023-05-10T12:25:16;32.50;;;30.20;;
3943;SDS011;1986;52.546;13.428;2023-05-10T12:27:53;32.87;;;30.47;;
3943;SDS011;1986;52.546;13.428;2023-05-10T12:30:22;33.00;;;30.70;;
3943;SDS011;1986;52.546;13.428;2023-05-10T12:32:50;34.43;;;31.93;;
3943;SDS011;1986;52.546;13.428;2023-05-10T12:35:19;32.10;;;29.70;;
3943;SDS011;1986;52.546;13.428;2023-05-10T12:37:48;29.40;;;27.20;;
3943;SDS011;1986;52.546;13.428;2023-05-10T12:40:15;32.07;;;29.57;;
3943;SDS011;1986;52.546;13.428;2023-05-10T12:42:42;32.40;;;30.00;;
3943;SDS011;1986;52.546;13.428;2023-05-10T12:45:12;31.07;;;28.77;;
3943;SDS011;1986;52.546;13.428;2023-05-10T12:47:42;32.97;;;30.23;;
3943;SDS011;1986;52.546;13.428;2023-05-10T12:50:09;31.00;;;28.70;;
3943;SDS011;1986;52.546;13.428;2023-05-10T12:52:36;33.40;;;30.53;;
3943;SDS011;1986;52.546;13.428;2023-05-10T12:55:17;33.87;;;31.27;;
3943;SDS011;1986;52.546;13.428;2023-05-10T12:57:44;32.30;;;30.00;;
3943;SDS011;1986;52.546;13.428;2023-05-10T13:00:13;31.90;;;29.60;;
3943;SDS011;1986;52.546;13.428;2023-05-10T13:02:49;32.13;;;29.83;;
3943;SDS011;1986;52.546;13.428;2023-05-10T13:05:18;31.67;;;29.47;;
3943;SDS011;1986;52.546;13.428;2023-05-10T13:07:46;32.13;;;29.83;;
3943;SDS011;1986;52.546;13.428;2023-05-10T13:10:14;30.97;;;28.67;;
3943;SDS011;1986;52.546;13.428;2023-05-10T13:12:43;30.50;;;28.00;;
3943;SDS011;1986;52.546;13.428;2023-05-10T13:15:10;31.63;;;29.23;;
3943;SDS011;1986;52.546;13.428;2023-05-10T13:17:38;30.60;;;28.20;;
3943;SDS011;1986;52.546;13.428;2023-05-10T13:20:10;30.90;;;28.50;;
3943;SDS011;1986;52.546;13.428;2023-05-10T13:22:37;32.17;;;29.67;;
3943;SDS011;1986;52.546;13.428;2023-05-10T13:25:10;32.13;;;29.60;;
3943;SDS011;1986;52.546;13.428;2023-05-10T13:27:39;30.37;;;28.07;;
3943;SDS011;1986;52.546;13.428;2023-05-10T13:30:06;31.67;;;29.20;;
3943;SDS011;1986;52.546;13.428;2023-05-10T13:32:34;30.83;;;28.27;;
3943;SDS011;1986;52.546;13.428;2023-05-10T13:35:03;30.27;;;27.77;;
3943;SDS011;1986;52.546;13.428;2023-05-10T13:37:31;31.17;;;28.87;;
3943;SDS011;1986;52.546;13.428;2023-05-10T13:40:00;40.00;;;30.87;;
3943;SDS011;1986;52.546;13.428;2023-05-10T13:42:27;33.53;;;31.00;;
3943;SDS011;1986;52.546;13.428;2023-05-10T13:44:54;33.00;;;30.23;;
3943;SDS011;1986;52.546;13.428;2023-05-10T13:47:24;32.50;;;30.20;;
3943;SDS011;1986;52.546;13.428;2023-05-10T13:49:54;33.60;;;31.10;;
3943;SDS011;1986;52.546;13.428;2023-05-10T13:52:23;33.77;;;30.53;;
3943;SDS011;1986;52.546;13.428;2023-05-10T13:54:55;33.10;;;30.70;;
3943;SDS011;1986;52.546;13.428;2023-05-10T13:57:22;33.47;;;31.07;;
3943;SDS011;1986;52.546;13.428;2023-05-10T13:59:51;32.63;;;30.30;;
3943;SDS011;1986;52.546;13.428;2023-05-10T14:02:18;31.70;;;29.40;;
3943;SDS011;1986;52.546;13.428;2023-05-10T14:04:45;32.60;;;30.30;;
3943;SDS011;1986;52.546;13.428;2023-05-10T14:07:13;33.33;;;31.00;;
3943;SDS011;1986;52.546;13.428;2023-05-10T14:09:44;32.97;;;30.67;;
3943;SDS011;1986;52.546;13.428;2023-05-10T14:12:12;32.43;;;30.13;;
3943;SDS011;1986;52.546;13.428;2023-05-10T14:14:48;34.50;;;32.00;;
3943;SDS011;1986;52.546;13.428;2023-05-10T14:17:15;35.50;;;32.80;;
3943;SDS011;1986;52.546;13.428;2023-05-10T14:19:52;34.40;;;32.00;;
3943;SDS011;1986;52.546;13.428;2023-05-10T14:22:19;33.77;;;31.43;;
3943;SDS011;1986;52.546;13.428;2023-05-10T14:24:58;31.70;;;29.30;;
3943;SDS011;1986;52.546;13.428;2023-05-10T14:27:28;32.10;;;28.90;;
3943;SDS011;1986;52.546;13.428;2023-05-10T14:29:56;30.63;;;28.33;;
3943;SDS011;1986;52.546;13.428;2023-05-10T14:32:23;33.70;;;31.20;;
3943;SDS011;1986;52.546;13.428;2023-05-10T14:34:52;30.90;;;28.70;;
3943;SDS011;1986;52.546;13.428;2023-05-10T14:37:19;32.33;;;30.03;;
3943;SDS011;1986;52.546;13.428;2023-05-10T14:39:46;35.00;;;32.40;;
3943;SDS011;1986;52.546;13.428;2023-05-10T14:42:14;34.10;;;31.50;;
3943;SDS011;1986;52.546;13.428;2023-05-10T14:44:41;32.90;;;30.50;;
3943;SDS011;1986;52.546;13.428;2023-05-10T14:47:09;33.70;;;30.20;;
3943;SDS011;1986;52.546;13.428;2023-05-10T14:49:36;31.60;;;29.30;;
3943;SDS011;1986;52.546;13.428;2023-05-10T14:52:04;32.27;;;29.63;;
3943;SDS011;1986;52.546;13.428;2023-05-10T14:54:34;30.93;;;28.63;;
3943;SDS011;1986;52.546;13.428;2023-05-10T14:57:01;32.97;;;30.47;;
3943;SDS011;1986;52.546;13.428;2023-05-10T14:59:30;32.63;;;30.13;;